createdAt,value
2023-02-06T00:01:33.963Z,102497.48
2023-02-06T00:04:01.360Z,102495.31
2023-02-06T00:06:28.707Z,102494.91
2023-02-06T00:08:55.772Z,102493.98
2023-02-06T00:11:23.304Z,102490.05
2023-02-06T00:13:50.811Z,102489.15
2023-02-06T00:16:17.788Z,102491.79
2023-02-06T00:18:45.460Z,102491.25
2023-02-06T00:21:13.180Z,102491.81
2023-02-06T00:23:40.116Z,102490.23
2023-02-06T00:26:08.405Z,102491.34
2023-02-06T00:28:35.865Z,102497.85
2023-02-06T00:31:05.864Z,102497.91
2023-02-06T00:33:33.445Z,102495.29
2023-02-06T00:36:00.853Z,102495.88
2023-02-06T00:38:29.217Z,102496.96
2023-02-06T00:40:56.867Z,102497.65
2023-02-06T00:43:24.221Z,102499.06
2023-02-06T00:45:52.395Z,102492.95
2023-02-06T00:48:19.353Z,102487.65
2023-02-06T00:50:49.362Z,102488.41
2023-02-06T00:53:16.832Z,102488.49
2023-02-06T00:55:43.781Z,102489.55
2023-02-06T00:58:11.043Z,102491.68
2023-02-06T01:00:40.864Z,102489.41
2023-02-06T01:03:07.904Z,102489.25
2023-02-06T01:05:35.980Z,102484.08
2023-02-06T01:08:04.530Z,102478.42
2023-02-06T01:10:32.305Z,102475.66
2023-02-06T01:13:00.627Z,102476.00
2023-02-06T01:15:27.888Z,102473.05
2023-02-06T01:17:54.825Z,102473.15
2023-02-06T01:20:24.962Z,102473.93
2023-02-06T01:22:52.003Z,102474.06
2023-02-06T01:25:19.353Z,102471.36
2023-02-06T01:27:47.591Z,102469.53
2023-02-06T01:30:15.133Z,102467.81
2023-02-06T01:32:43.193Z,102465.66
2023-02-06T01:35:11.572Z,102473.95
2023-02-06T01:37:39.953Z,102480.02
2023-02-06T01:40:11.749Z,102479.35
2023-02-06T01:42:39.473Z,102472.79
2023-02-06T01:45:26.072Z,102463.77
2023-02-06T01:47:59.262Z,102458.55
2023-02-06T01:50:26.414Z,102455.28
2023-02-06T01:52:53.367Z,102452.73
2023-02-06T01:55:20.426Z,102457.08
2023-02-06T01:57:47.372Z,102448.36
2023-02-06T02:00:15.339Z,102442.54
2023-02-06T02:02:48.463Z,102440.27
2023-02-06T02:05:18.366Z,102443.52
2023-02-06T02:08:10.680Z,102441.83
2023-02-06T02:10:38.451Z,102442.50
2023-02-06T02:13:05.413Z,102442.83
2023-02-06T02:15:43.915Z,102442.00
2023-02-06T02:18:49.141Z,102442.70
2023-02-06T02:21:37.888Z,102443.23
2023-02-06T02:24:23.872Z,102437.27
2023-02-06T02:27:09.957Z,102444.49
2023-02-06T02:29:56.767Z,102453.52
2023-02-06T02:32:45.510Z,102455.45
2023-02-06T02:35:19.726Z,102453.75
2023-02-06T02:38:07.859Z,102453.20
2023-02-06T02:41:03.160Z,102458.55
2023-02-06T02:43:37.703Z,102465.30
2023-02-06T02:46:22.951Z,102470.70
2023-02-06T02:48:53.255Z,102473.24
2023-02-06T02:51:21.045Z,102467.29
2023-02-06T02:53:48.091Z,102464.34
2023-02-06T02:56:22.682Z,102466.42
2023-02-06T02:59:03.276Z,102460.89
2023-02-06T03:01:42.926Z,102458.61
2023-02-06T03:04:18.368Z,102460.97
2023-02-06T03:07:08.745Z,102465.39
2023-02-06T03:09:48.900Z,102463.92
2023-02-06T03:12:45.838Z,102466.52
2023-02-06T03:18:19.277Z,102464.39
2023-02-06T03:20:47.959Z,102462.48
2023-02-06T03:23:21.139Z,102461.39
2023-02-06T03:25:53.137Z,102460.42
2023-02-06T03:28:28.748Z,102453.28
2023-02-06T03:30:58.454Z,102451.86
2023-02-06T03:33:33.775Z,102448.87
2023-02-06T03:36:01.258Z,102453.81
2023-02-06T03:38:28.377Z,102456.60
2023-02-06T03:40:59.384Z,102457.23
2023-02-06T03:43:29.752Z,102455.80
2023-02-06T03:46:04.156Z,102456.33
2023-02-06T03:48:38.978Z,102454.92
2023-02-06T03:51:16.308Z,102453.70
2023-02-06T03:53:45.826Z,102451.48
2023-02-06T03:56:45.123Z,102447.83
2023-02-06T03:59:13.018Z,102455.55
2023-02-06T04:01:44.725Z,102460.86
2023-02-06T04:04:15.821Z,102465.30
2023-02-06T04:06:43.414Z,102466.14
2023-02-06T04:09:10.333Z,102463.95
2023-02-06T04:11:37.196Z,102464.71
2023-02-06T04:14:04.042Z,102463.83
2023-02-06T04:16:31.033Z,102464.42
2023-02-06T04:18:58.008Z,102467.39
2023-02-06T04:21:24.838Z,102467.41
2023-02-06T04:23:51.680Z,102471.28
2023-02-06T04:26:18.585Z,102469.82
2023-02-06T04:28:47.132Z,102470.29
2023-02-06T04:31:14.036Z,102467.29
2023-02-06T04:33:41.709Z,102474.19
2023-02-06T04:36:08.828Z,102476.78
2023-02-06T04:38:35.712Z,102475.06
2023-02-06T04:41:07.129Z,102472.20
2023-02-06T04:43:34.383Z,102471.17
2023-02-06T04:46:01.340Z,102462.36
2023-02-06T04:48:28.429Z,102453.88
2023-02-06T04:50:55.516Z,102448.34
2023-02-06T04:53:22.373Z,102444.15
2023-02-06T04:55:49.267Z,102444.75
2023-02-06T04:58:16.118Z,102442.02
2023-02-06T05:00:42.976Z,102441.64
2023-02-06T05:03:09.772Z,102441.00
2023-02-06T05:05:36.773Z,102444.17
2023-02-06T05:08:03.806Z,102448.76
2023-02-06T05:10:30.752Z,102450.27
2023-02-06T05:12:57.541Z,102456.67
2023-02-06T05:15:24.543Z,102458.86
2023-02-06T05:17:51.464Z,102458.04
2023-02-06T05:20:19.271Z,102458.27
2023-02-06T05:22:46.167Z,102455.44
2023-02-06T05:25:13.071Z,102457.35
2023-02-06T05:27:39.886Z,102455.52
2023-02-06T05:30:07.121Z,102458.15
2023-02-06T05:32:33.981Z,102456.05
2023-02-06T05:35:00.791Z,102460.61
2023-02-06T05:37:27.639Z,102464.42
2023-02-06T05:39:54.525Z,102468.68
2023-02-06T05:42:21.375Z,102469.35
2023-02-06T05:44:48.195Z,102471.33
2023-02-06T05:47:15.023Z,102475.05
2023-02-06T05:49:44.169Z,102471.33
2023-02-06T05:52:11.750Z,102466.98
2023-02-06T05:54:38.532Z,102471.55
2023-02-06T05:57:05.447Z,102471.69
2023-02-06T05:59:32.371Z,102469.63
2023-02-06T06:01:59.499Z,102470.58
2023-02-06T06:04:26.480Z,102472.39
2023-02-06T06:06:53.389Z,102469.23
2023-02-06T06:09:20.320Z,102469.14
2023-02-06T06:11:47.955Z,102466.65
2023-02-06T06:14:14.781Z,102467.73
2023-02-06T06:16:42.016Z,102465.80
2023-02-06T06:19:09.488Z,102466.08
2023-02-06T06:21:36.734Z,102462.95
2023-02-06T06:24:03.861Z,102464.64
2023-02-06T06:26:30.974Z,102468.30
2023-02-06T06:28:57.842Z,102473.26
2023-02-06T06:31:25.020Z,102472.67
2023-02-06T06:33:52.853Z,102476.20
2023-02-06T06:36:19.785Z,102478.49
2023-02-06T06:38:46.642Z,102485.94
2023-02-06T06:41:13.610Z,102488.63
2023-02-06T06:43:40.974Z,102489.10
2023-02-06T06:46:08.579Z,102491.46
2023-02-06T06:48:37.319Z,102493.02
2023-02-06T06:51:06.041Z,102490.11
2023-02-06T06:53:33.252Z,102491.77
2023-02-06T06:56:04.770Z,102496.86
2023-02-06T06:58:32.507Z,102491.09
2023-02-06T07:00:59.483Z,102490.14
2023-02-06T07:03:26.819Z,102494.91
2023-02-06T07:05:53.908Z,102496.41
2023-02-06T07:08:21.130Z,102496.54
2023-02-06T07:10:48.863Z,102499.77
2023-02-06T07:13:15.863Z,102503.54
2023-02-06T07:15:43.519Z,102506.34
2023-02-06T07:18:11.847Z,102513.49
2023-02-06T07:20:39.073Z,102515.95
2023-02-06T07:23:06.498Z,102515.25
2023-02-06T07:25:33.542Z,102516.95
2023-02-06T07:28:00.639Z,102520.67
2023-02-06T07:30:27.667Z,102519.74
2023-02-06T07:32:54.589Z,102525.20
2023-02-06T07:35:21.495Z,102526.45
2023-02-06T07:37:50.665Z,102527.16
2023-02-06T07:40:17.626Z,102521.36
2023-02-06T07:42:44.525Z,102517.67
2023-02-06T07:45:34.435Z,102515.39
2023-02-06T07:48:04.465Z,102517.19
2023-02-06T07:50:32.013Z,102520.19
2023-02-06T07:52:59.428Z,102515.15
2023-02-06T07:55:27.860Z,102515.47
2023-02-06T07:57:55.792Z,102511.98
2023-02-06T08:00:25.538Z,102507.60
2023-02-06T08:02:53.048Z,102505.54
2023-02-06T08:05:20.090Z,102502.73
2023-02-06T08:07:47.392Z,102501.21
2023-02-06T08:10:14.330Z,102507.98
2023-02-06T08:12:41.290Z,102507.60
2023-02-06T08:15:08.867Z,102507.83
2023-02-06T08:17:36.388Z,102507.17
2023-02-06T08:20:03.627Z,102508.70
2023-02-06T08:22:30.687Z,102506.41
2023-02-06T08:24:57.543Z,102508.87
2023-02-06T08:27:25.896Z,102509.61
2023-02-06T08:29:53.255Z,102509.73
2023-02-06T08:32:20.397Z,102504.92
2023-02-06T08:34:47.482Z,102501.60
2023-02-06T08:37:15.395Z,102505.60
2023-02-06T08:39:42.380Z,102508.88
2023-02-06T08:42:09.304Z,102512.68
2023-02-06T08:44:36.390Z,102512.05
2023-02-06T08:47:10.039Z,102508.25
2023-02-06T08:49:38.590Z,102509.75
2023-02-06T08:52:06.047Z,102509.40
2023-02-06T08:54:35.288Z,102510.95
2023-02-06T08:57:03.405Z,102510.60
2023-02-06T08:59:31.266Z,102510.44
2023-02-06T09:01:58.640Z,102511.84
2023-02-06T09:04:25.691Z,102515.05
2023-02-06T09:06:52.656Z,102514.83
2023-02-06T09:09:19.833Z,102514.81
2023-02-06T09:11:47.114Z,102512.63
2023-02-06T09:14:16.282Z,102509.91
2023-02-06T09:16:44.365Z,102509.35
2023-02-06T09:19:11.422Z,102509.58
2023-02-06T09:21:38.599Z,102513.07
2023-02-06T09:24:08.655Z,102514.05
2023-02-06T09:26:40.561Z,102515.58
2023-02-06T09:29:12.430Z,102516.40
2023-02-06T09:31:42.685Z,102514.94
2023-02-06T09:34:13.001Z,102515.46
2023-02-06T09:36:40.840Z,102514.61
2023-02-06T09:39:09.750Z,102509.86
2023-02-06T09:41:44.814Z,102506.36
2023-02-06T09:44:27.393Z,102506.25
2023-02-06T09:47:15.140Z,102507.40
2023-02-06T09:49:52.275Z,102508.33
2023-02-06T09:52:59.542Z,102505.44
2023-02-06T09:55:26.490Z,102506.15
2023-02-06T09:58:16.442Z,102509.47
2023-02-06T10:00:49.546Z,102502.05
2023-02-06T10:03:25.708Z,102497.73
2023-02-06T10:06:09.235Z,102495.70
2023-02-06T10:08:42.401Z,102493.90
2023-02-06T10:11:20.475Z,102490.84
2023-02-06T10:13:57.447Z,102491.77
2023-02-06T10:16:34.941Z,102492.30
2023-02-06T10:19:14.733Z,102494.73
2023-02-06T10:22:12.900Z,102497.41
2023-02-06T10:25:16.230Z,102497.27
2023-02-06T10:27:45.853Z,102491.32
2023-02-06T10:30:26.197Z,102487.21
2023-02-06T10:33:09.728Z,102489.98
2023-02-06T10:35:52.099Z,102490.94
2023-02-06T10:38:32.693Z,102492.05
2023-02-06T10:41:20.093Z,102491.77
2023-02-06T10:43:58.041Z,102487.77
2023-02-06T10:46:48.567Z,102484.23
2023-02-06T10:49:48.109Z,102478.90
2023-02-06T10:52:22.077Z,102469.66
2023-02-06T10:55:18.293Z,102467.98
2023-02-06T10:57:47.985Z,102466.70
2023-02-06T11:00:26.476Z,102470.71
2023-02-06T11:03:07.283Z,102470.38
2023-02-06T11:05:36.309Z,102464.67
2023-02-06T11:08:13.993Z,102465.66
2023-02-06T11:10:41.128Z,102462.13
2023-02-06T11:13:29.817Z,102460.91
2023-02-06T11:16:08.749Z,102458.91
2023-02-06T11:18:39.905Z,102458.27
2023-02-06T11:21:09.824Z,102459.94
2023-02-06T11:23:36.865Z,102465.85
2023-02-06T11:26:14.765Z,102466.86
2023-02-06T11:28:52.761Z,102467.20
2023-02-06T11:31:39.631Z,102470.14
2023-02-06T11:34:06.865Z,102469.09
2023-02-06T11:36:38.737Z,102464.35
2023-02-06T11:39:23.836Z,102465.77
2023-02-06T11:41:59.843Z,102470.48
2023-02-06T11:44:29.432Z,102475.84
2023-02-06T11:46:57.412Z,102475.35
2023-02-06T11:49:32.001Z,102478.16
2023-02-06T11:52:00.965Z,102480.56
2023-02-06T11:54:30.547Z,102482.41
2023-02-06T11:57:04.484Z,102482.36
2023-02-06T11:59:34.728Z,102485.04
2023-02-06T12:02:06.642Z,102490.34
2023-02-06T12:04:41.721Z,102496.48
2023-02-06T12:07:16.979Z,102501.30
2023-02-06T12:09:44.116Z,102496.52
2023-02-06T12:12:24.012Z,102491.92
2023-02-06T12:15:43.684Z,102488.80
2023-02-06T12:18:21.961Z,102489.50
2023-02-06T12:21:06.700Z,102491.48
2023-02-06T12:23:44.216Z,102489.52
2023-02-06T12:26:15.014Z,102488.61
2023-02-06T12:28:44.680Z,102487.66
2023-02-06T12:31:59.435Z,102490.27
2023-02-06T12:34:32.833Z,102492.76
2023-02-06T12:37:16.325Z,102490.23
2023-02-06T12:39:44.028Z,102494.77
2023-02-06T12:42:37.206Z,102494.65
2023-02-06T12:45:27.724Z,102491.38
2023-02-06T12:48:12.148Z,102495.83
2023-02-06T12:50:49.527Z,102492.94
2023-02-06T12:53:30.645Z,102491.09
2023-02-06T12:56:14.558Z,102493.30
2023-02-06T12:58:44.684Z,102495.05
2023-02-06T13:01:27.979Z,102494.62
2023-02-06T13:04:00.582Z,102494.46
2023-02-06T13:06:32.746Z,102498.76
2023-02-06T13:09:03.028Z,102500.32
2023-02-06T13:11:35.848Z,102503.03
2023-02-06T13:14:25.820Z,102503.97
2023-02-06T13:17:11.972Z,102500.78
2023-02-06T13:19:41.922Z,102500.11
2023-02-06T13:22:08.697Z,102500.85
2023-02-06T13:24:37.411Z,102503.29
2023-02-06T13:27:07.214Z,102501.58
2023-02-06T13:29:40.157Z,102498.10
2023-02-06T13:32:18.638Z,102496.06
2023-02-06T13:34:54.821Z,102491.16
2023-02-06T13:37:21.784Z,102484.56
2023-02-06T13:39:49.688Z,102474.47
2023-02-06T13:42:52.245Z,102475.46
2023-02-06T13:45:26.615Z,102480.18
2023-02-06T13:48:32.086Z,102479.26
2023-02-06T13:51:09.528Z,102469.14
2023-02-06T13:53:58.551Z,102468.41
2023-02-06T13:56:31.661Z,102468.98
2023-02-06T13:59:06.188Z,102467.67
2023-02-06T14:01:34.152Z,102476.70
2023-02-06T14:06:40.479Z,102482.38
2023-02-06T14:09:51.011Z,102485.88
2023-02-06T14:12:46.014Z,102489.89
2023-02-06T14:15:50.790Z,102489.08
2023-02-06T14:18:22.221Z,102478.30
2023-02-06T14:20:52.930Z,102474.36
2023-02-06T14:23:52.499Z,102474.93
2023-02-06T14:26:39.124Z,102476.56
2023-02-06T14:29:30.924Z,102476.98
2023-02-06T14:32:31.042Z,102479.48
2023-02-06T14:35:27.444Z,102479.23
2023-02-06T14:38:16.305Z,102479.91
2023-02-06T14:40:45.304Z,102481.48
2023-02-06T14:43:18.307Z,102480.05
2023-02-06T14:46:05.399Z,102481.64
2023-02-06T14:48:39.747Z,102482.26
2023-02-06T14:51:09.210Z,102485.23
2023-02-06T14:53:39.030Z,102482.91
2023-02-06T14:56:14.264Z,102482.40
2023-02-06T14:58:46.537Z,102488.89
2023-02-06T15:01:43.005Z,102492.85
2023-02-06T15:04:24.753Z,102499.98
2023-02-06T15:07:02.122Z,102502.00
2023-02-06T15:09:33.370Z,102502.61
2023-02-06T15:12:03.305Z,102502.35
2023-02-06T15:14:33.809Z,102501.25
2023-02-06T15:17:02.945Z,102502.41
2023-02-06T15:19:32.690Z,102498.59
2023-02-06T15:22:06.510Z,102495.88
2023-02-06T15:25:02.678Z,102492.81
2023-02-06T15:27:32.406Z,102491.45
2023-02-06T15:30:01.700Z,102489.86
2023-02-06T15:32:39.260Z,102490.04
2023-02-06T15:35:19.139Z,102494.35
2023-02-06T15:37:46.256Z,102492.72
2023-02-06T15:40:13.849Z,102491.47
2023-02-06T15:42:41.839Z,102488.08
2023-02-06T15:45:18.304Z,102490.21
2023-02-06T15:47:46.386Z,102494.06
2023-02-06T15:50:19.481Z,102497.56
2023-02-06T15:52:47.747Z,102498.14
2023-02-06T15:55:26.726Z,102502.15
2023-02-06T15:57:55.991Z,102508.61
2023-02-06T16:00:33.076Z,102519.93
2023-02-06T16:03:08.084Z,102528.48
2023-02-06T16:05:41.076Z,102532.39
2023-02-06T16:08:17.804Z,102532.19
2023-02-06T16:10:50.526Z,102529.96
2023-02-06T16:13:22.553Z,102529.28
2023-02-06T16:16:08.984Z,102527.94
2023-02-06T16:18:38.806Z,102527.02
2023-02-06T16:21:18.152Z,102527.42
2023-02-06T16:23:46.704Z,102525.08
2023-02-06T16:26:28.570Z,102522.50
2023-02-06T16:29:00.911Z,102524.29
2023-02-06T16:31:31.035Z,102533.16
2023-02-06T16:34:04.814Z,102542.18
2023-02-06T16:36:33.815Z,102544.77
2023-02-06T16:39:04.364Z,102544.84
2023-02-06T16:41:38.468Z,102548.42
2023-02-06T16:44:13.693Z,102554.65
2023-02-06T16:46:41.073Z,102553.30
2023-02-06T16:49:20.128Z,102556.89
2023-02-06T16:51:49.293Z,102559.09
2023-02-06T16:54:23.618Z,102553.36
2023-02-06T16:56:52.209Z,102550.51
2023-02-06T16:59:20.167Z,102549.39
2023-02-06T17:01:47.590Z,102551.83
2023-02-06T17:04:15.344Z,102550.96
2023-02-06T17:06:45.302Z,102556.38
2023-02-06T17:09:15.236Z,102560.17
2023-02-06T17:11:42.386Z,102561.16
2023-02-06T17:14:10.698Z,102563.80
2023-02-06T17:16:37.889Z,102557.26
2023-02-06T17:19:05.081Z,102554.56
2023-02-06T17:21:34.085Z,102546.19
2023-02-06T17:24:01.434Z,102542.23
2023-02-06T17:26:29.104Z,102543.47
2023-02-06T17:28:56.561Z,102546.50
2023-02-06T17:31:23.974Z,102548.94
2023-02-06T17:33:51.397Z,102550.45
2023-02-06T17:36:29.635Z,102549.41
2023-02-06T17:39:00.961Z,102551.52
2023-02-06T17:41:28.421Z,102549.38
2023-02-06T17:43:55.665Z,102545.45
2023-02-06T17:46:23.513Z,102547.52
2023-02-06T17:48:51.108Z,102550.89
2023-02-06T17:51:18.166Z,102555.08
2023-02-06T17:53:45.210Z,102562.20
2023-02-06T17:56:13.403Z,102566.04
2023-02-06T17:58:41.684Z,102572.06
2023-02-06T18:01:14.017Z,102570.68
2023-02-06T18:03:42.349Z,102565.20
2023-02-06T18:06:10.268Z,102563.60
2023-02-06T18:08:37.351Z,102562.11
2023-02-06T18:11:13.956Z,102565.43
2023-02-06T18:13:43.370Z,102567.61
2023-02-06T18:16:15.848Z,102573.04
2023-02-06T18:18:44.237Z,102572.20
2023-02-06T18:21:12.091Z,102569.77
2023-02-06T18:23:40.142Z,102573.27
2023-02-06T18:26:09.665Z,102568.37
2023-02-06T18:28:37.930Z,102565.65
2023-02-06T18:31:05.748Z,102559.79
2023-02-06T18:33:35.627Z,102557.91
2023-02-06T18:36:07.185Z,102562.83
2023-02-06T18:38:34.416Z,102568.85
2023-02-06T18:41:05.786Z,102571.25
2023-02-06T18:43:34.046Z,102572.04
2023-02-06T18:46:07.272Z,102574.67
2023-02-06T18:48:34.802Z,102574.35
2023-02-06T18:51:07.077Z,102576.10
2023-02-06T18:53:34.547Z,102577.23
2023-02-06T18:56:02.105Z,102585.52
2023-02-06T18:58:29.163Z,102592.06
2023-02-06T19:00:56.631Z,102594.19
2023-02-06T19:03:23.880Z,102591.59
2023-02-06T19:05:51.027Z,102590.67
2023-02-06T19:08:18.098Z,102594.48
2023-02-06T19:10:45.658Z,102595.03
2023-02-06T19:13:12.707Z,102589.89
2023-02-06T19:15:39.774Z,102589.38
2023-02-06T19:18:08.273Z,102586.20
2023-02-06T19:20:35.848Z,102596.48
2023-02-06T19:23:03.067Z,102603.38
2023-02-06T19:25:31.140Z,102601.55
2023-02-06T19:27:58.172Z,102603.41
2023-02-06T19:30:25.195Z,102602.82
2023-02-06T19:32:52.593Z,102604.71
2023-02-06T19:35:20.079Z,102609.30
2023-02-06T19:37:47.635Z,102607.15
2023-02-06T19:40:14.690Z,102602.23
2023-02-06T19:42:41.733Z,102596.81
2023-02-06T19:45:12.071Z,102599.52
2023-02-06T19:47:39.229Z,102596.48
2023-02-06T19:50:06.781Z,102590.16
2023-02-06T19:52:35.565Z,102590.58
2023-02-06T19:55:03.086Z,102597.44
2023-02-06T19:57:30.200Z,102598.70
2023-02-06T19:59:57.100Z,102595.31
2023-02-06T20:02:24.098Z,102595.05
2023-02-06T20:04:51.266Z,102600.32
2023-02-06T20:07:18.272Z,102597.78
2023-02-06T20:09:45.472Z,102597.42
2023-02-06T20:12:12.933Z,102588.92
2023-02-06T20:14:40.488Z,102586.31
2023-02-06T20:17:07.608Z,102594.13
2023-02-06T20:19:35.520Z,102595.08
2023-02-06T20:22:03.381Z,102595.39
2023-02-06T20:24:32.419Z,102593.54
2023-02-06T20:27:02.140Z,102590.56
2023-02-06T20:29:32.321Z,102588.25
2023-02-06T20:32:00.366Z,102591.33
2023-02-06T20:34:28.747Z,102592.18
2023-02-06T20:36:56.142Z,102591.06
2023-02-06T20:39:23.798Z,102588.28
2023-02-06T20:41:51.183Z,102592.70
2023-02-06T20:44:20.278Z,102597.38
2023-02-06T20:46:47.749Z,102598.98
2023-02-06T20:49:17.895Z,102596.89
2023-02-06T20:51:45.067Z,102607.13
2023-02-06T20:54:12.752Z,102610.45
2023-02-06T20:56:40.694Z,102613.92
2023-02-06T20:59:09.112Z,102616.54
2023-02-06T21:01:36.444Z,102613.39
2023-02-06T21:04:08.624Z,102618.71
2023-02-06T21:06:37.684Z,102623.70
2023-02-06T21:09:06.199Z,102621.02
2023-02-06T21:11:38.015Z,102626.83
2023-02-06T21:14:07.243Z,102626.91
2023-02-06T21:16:38.044Z,102618.55
2023-02-06T21:19:07.546Z,102619.31
2023-02-06T21:21:35.430Z,102620.12
2023-02-06T21:24:02.473Z,102621.62
2023-02-06T21:26:30.641Z,102625.57
2023-02-06T21:29:00.411Z,102624.65
2023-02-06T21:31:36.940Z,102620.21
2023-02-06T21:34:17.518Z,102622.83
2023-02-06T21:36:45.595Z,102623.55
2023-02-06T21:39:21.356Z,102613.92
2023-02-06T21:41:52.176Z,102616.97
2023-02-06T21:44:23.404Z,102616.54
2023-02-06T21:46:51.622Z,102605.90
2023-02-06T21:49:19.973Z,102606.42
2023-02-06T21:51:46.938Z,102608.23
2023-02-06T21:54:14.203Z,102606.34
2023-02-06T21:56:41.341Z,102604.20
2023-02-06T21:59:10.091Z,102604.73
2023-02-06T22:01:40.937Z,102600.30
2023-02-06T22:04:09.602Z,102597.44
2023-02-06T22:06:37.745Z,102596.71
2023-02-06T22:09:10.820Z,102598.92
2023-02-06T22:11:39.952Z,102597.73
2023-02-06T22:14:15.731Z,102603.76
2023-02-06T22:16:43.463Z,102607.50
2023-02-06T22:19:11.032Z,102596.95
2023-02-06T22:21:38.282Z,102591.62
2023-02-06T22:24:07.391Z,102594.79
2023-02-06T22:26:38.965Z,102585.02
2023-02-06T22:29:10.184Z,102588.67
2023-02-06T22:31:41.057Z,102584.48
2023-02-06T22:34:12.398Z,102578.36
2023-02-06T22:36:39.973Z,102574.93
2023-02-06T22:39:08.719Z,102573.89
2023-02-06T22:41:39.561Z,102568.89
2023-02-06T22:44:07.125Z,102570.24
2023-02-06T22:46:37.365Z,102573.08
2023-02-06T22:49:08.079Z,102570.59
2023-02-06T22:51:35.952Z,102564.78
2023-02-06T22:54:03.602Z,102563.77
2023-02-06T22:56:36.290Z,102567.47
2023-02-06T22:59:12.565Z,102568.84
2023-02-06T23:01:44.148Z,102566.69
2023-02-06T23:04:15.468Z,102572.82
2023-02-06T23:06:43.556Z,102580.44
2023-02-06T23:09:15.300Z,102581.48
2023-02-06T23:11:42.357Z,102570.87
2023-02-06T23:14:12.279Z,102564.30
2023-02-06T23:16:39.740Z,102575.27
2023-02-06T23:19:07.814Z,102569.52
2023-02-06T23:21:39.372Z,102570.59
2023-02-06T23:24:08.513Z,102569.64
2023-02-06T23:26:35.971Z,102571.16
2023-02-06T23:29:05.773Z,102567.63
2023-02-06T23:31:33.475Z,102569.33
2023-02-06T23:34:01.083Z,102566.52
2023-02-06T23:36:28.755Z,102567.52
2023-02-06T23:38:56.002Z,102571.54
2023-02-06T23:41:25.526Z,102566.36
2023-02-06T23:43:55.745Z,102567.30
2023-02-06T23:46:24.006Z,102565.48
2023-02-06T23:48:51.887Z,102562.02
2023-02-06T23:51:20.853Z,102560.66
2023-02-06T23:53:48.763Z,102563.52
2023-02-06T23:56:19.760Z,102561.96
2023-02-06T23:58:47.382Z,102560.10
